Time;durP1;ratioP1;P1;durP2;ratioP2;P2;SDS_P1;SDS_P2;PMS_P1;PMS_P2;Temp;Humidity;BMP_temperature;BMP_pressure;BME280_temperature;BME280_humidity;BME280_pressure;Samples;Min_cycle;Max_cycle;Signal;HPM_P1;HPM_P2
2021/01/16 00:00:35;;;;;;;28.13;11.63;;;-8.40;99.90;;;;;;4364715;32;20161;-73
2021/01/16 00:03:02;;;;;;;28.70;11.90;;;-8.50;99.90;;;;;;4365871;32;20152;-73
2021/01/16 00:05:30;;;;;;;28.20;11.07;;;-8.50;99.90;;;;;;4364808;32;20516;-73
2021/01/16 00:08:23;;;;;;;27.03;11.67;;;-8.50;99.90;;;;;;4364893;32;20227;-72
2021/01/16 00:10:52;;;;;;;26.23;10.80;;;-8.50;99.90;;;;;;4362678;32;20243;-72
2021/01/16 00:13:33;;;;;;;26.37;11.30;;;-8.60;99.90;;;;;;4364367;32;20145;-73
2021/01/16 00:16:01;;;;;;;22.50;9.73;;;-8.60;99.90;;;;;;4364611;32;20183;-73
2021/01/16 00:18:27;;;;;;;22.43;10.83;;;-8.60;99.90;;;;;;4364306;32;20187;-73
2021/01/16 00:20:56;;;;;;;24.53;10.10;;;-8.60;99.90;;;;;;4364242;32;20171;-73
2021/01/16 00:23:24;;;;;;;27.43;10.50;;;-8.70;99.90;;;;;;4364710;32;20144;-73
2021/01/16 00:25:51;;;;;;;26.30;10.63;;;-8.70;99.90;;;;;;4365385;32;20519;-73
2021/01/16 00:28:23;;;;;;;26.87;10.40;;;-8.70;99.90;;;;;;4365052;32;20143;-73
2021/01/16 00:30:50;;;;;;;30.00;11.07;;;-8.70;99.90;;;;;;4366089;32;20207;-73
2021/01/16 00:33:22;;;;;;;27.17;10.53;;;-8.80;99.90;;;;;;4364197;32;20552;-73
2021/01/16 00:35:50;;;;;;;24.00;9.90;;;-8.80;99.90;;;;;;4364539;32;20160;-73
2021/01/16 00:38:17;;;;;;;25.07;10.67;;;-8.80;99.90;;;;;;4364097;33;20346;-73
2021/01/16 00:40:44;;;;;;;25.37;10.63;;;-8.90;99.90;;;;;;4365543;33;20152;-73
2021/01/16 00:43:14;;;;;;;25.00;10.90;;;-8.80;99.90;;;;;;4364070;33;20206;-73
2021/01/16 00:45:41;;;;;;;27.53;11.30;;;-8.90;99.90;;;;;;4364022;33;20418;-73
2021/01/16 00:48:12;;;;;;;27.30;11.00;;;-8.90;99.90;;;;;;4364076;33;20195;-73
2021/01/16 00:50:40;;;;;;;25.53;10.90;;;-9.10;99.90;;;;;;4364409;33;20171;-73
2021/01/16 00:53:07;;;;;;;28.83;11.47;;;-9.10;99.90;;;;;;4363877;33;20195;-73
2021/01/16 00:55:35;;;;;;;30.27;12.03;;;-9.00;99.90;;;;;;4365314;33;20189;-73
2021/01/16 00:58:12;;;;;;;30.70;11.97;;;-9.20;99.90;;;;;;4363635;33;20187;-73
2021/01/16 01:00:41;;;;;;;27.73;10.87;;;-9.20;99.90;;;;;;4367727;32;20532;-73
2021/01/16 01:03:09;;;;;;;35.17;12.37;;;-9.20;99.90;;;;;;4368434;32;20167;-73
2021/01/16 01:05:36;;;;;;;29.07;11.83;;;-9.20;99.90;;;;;;4368320;32;20182;-73
2021/01/16 01:08:02;;;;;;;34.87;12.80;;;-9.30;99.90;;;;;;4367157;32;20148;-73
2021/01/16 01:10:39;;;;;;;33.77;12.63;;;-9.40;99.90;;;;;;4366860;32;20172;-73
2021/01/16 01:13:05;;;;;;;35.07;12.27;;;-9.30;99.90;;;;;;4368235;32;20191;-73
2021/01/16 01:15:32;;;;;;;33.57;12.80;;;-9.20;99.90;;;;;;4366647;32;20182;-73
2021/01/16 01:18:00;;;;;;;36.90;13.93;;;-9.20;99.90;;;;;;4366697;32;20183;-73
2021/01/16 01:20:28;;;;;;;41.00;13.70;;;-9.10;99.90;;;;;;4366742;32;20160;-73
2021/01/16 01:22:56;;;;;;;40.00;14.23;;;-9.00;99.90;;;;;;4366528;32;20182;-73
2021/01/16 01:25:23;;;;;;;42.00;14.10;;;-9.00;99.90;;;;;;4366095;32;20188;-73
2021/01/16 01:27:56;;;;;;;37.87;14.33;;;-9.00;99.90;;;;;;4366562;32;20191;-72
2021/01/16 01:30:24;;;;;;;38.43;14.07;;;-9.10;99.90;;;;;;4367502;32;20190;-73
2021/01/16 01:32:51;;;;;;;44.57;15.57;;;-9.10;99.90;;;;;;4366555;32;20145;-73
2021/01/16 01:35:18;;;;;;;47.33;16.43;;;-9.20;99.90;;;;;;4366477;32;20201;-72
2021/01/16 01:37:51;;;;;;;38.60;15.33;;;-9.20;99.90;;;;;;4366387;32;20171;-73
2021/01/16 01:40:19;;;;;;;39.83;14.73;;;-9.20;99.90;;;;;;4367960;32;20148;-72
2021/01/16 01:42:49;;;;;;;43.53;15.27;;;-9.20;99.90;;;;;;4366435;32;20212;-73
2021/01/16 01:45:16;;;;;;;45.93;16.47;;;-9.20;99.90;;;;;;4366263;32;20194;-72
2021/01/16 01:47:44;;;;;;;37.73;14.80;;;-9.20;99.90;;;;;;4366269;32;20152;-73
2021/01/16 01:50:13;;;;;;;41.00;15.67;;;-9.20;99.90;;;;;;4367607;32;20175;-72
2021/01/16 01:52:41;;;;;;;42.37;15.63;;;-9.20;99.90;;;;;;4366055;32;20200;-73
2021/01/16 01:55:10;;;;;;;42.73;16.27;;;-9.10;99.90;;;;;;4368039;32;20159;-73
2021/01/16 01:57:39;;;;;;;44.70;16.00;;;-9.00;99.90;;;;;;4367547;32;20164;-73
2021/01/16 02:00:12;;;;;;;43.53;15.80;;;-9.00;99.90;;;;;;4365603;32;20218;-73
2021/01/16 02:02:41;;;;;;;50.73;18.00;;;-8.90;99.90;;;;;;4366156;32;20187;-73
2021/01/16 02:05:09;;;;;;;46.53;16.43;;;-8.90;99.90;;;;;;4365561;32;20173;-73
2021/01/16 02:07:39;;;;;;;40.13;15.20;;;-8.80;99.90;;;;;;4365674;32;20445;-73
2021/01/16 02:10:22;;;;;;;44.60;16.50;;;-8.80;99.90;;;;;;4365954;32;20195;-73
2021/01/16 02:12:53;;;;;;;40.30;14.97;;;-8.70;99.90;;;;;;4367162;32;20198;-72
2021/01/16 02:15:38;;;;;;;39.50;14.37;;;-8.80;99.90;;;;;;4367788;32;20163;-72
2021/01/16 02:18:23;;;;;;;42.57;15.70;;;-8.70;99.90;;;;;;4367332;32;20425;-72
2021/01/16 02:20:53;;;;;;;43.90;14.87;;;-8.70;99.90;;;;;;4367321;32;20198;-73
2021/01/16 02:23:29;;;;;;;40.63;15.43;;;-8.70;99.90;;;;;;4365818;32;20458;-73
2021/01/16 02:26:17;;;;;;;37.43;14.57;;;-8.60;99.90;;;;;;4366025;32;20189;-73
2021/01/16 02:29:00;;;;;;;35.13;14.10;;;-8.50;99.90;;;;;;4365678;32;20199;-73
2021/01/16 02:31:31;;;;;;;36.90;14.43;;;-8.50;99.90;;;;;;4366382;32;20202;-72
2021/01/16 02:34:00;;;;;;;38.00;14.97;;;-8.50;99.90;;;;;;4365701;32;20467;-73
2021/01/16 02:37:04;;;;;;;34.47;14.90;;;-8.50;99.90;;;;;;4365124;32;20195;-73
2021/01/16 02:40:04;;;;;;;45.03;15.50;;;-8.40;99.90;;;;;;4367056;32;20187;-72
2021/01/16 02:42:42;;;;;;;32.80;13.87;;;-8.40;99.90;;;;;;4366598;32;20191;-73
2021/01/16 02:45:13;;;;;;;45.83;15.73;;;-8.40;99.90;;;;;;4365541;32;20243;-72
2021/01/16 02:47:48;;;;;;;36.93;13.97;;;-8.30;99.90;;;;;;4365795;32;20462;-72
2021/01/16 02:50:20;;;;;;;38.70;14.77;;;-8.20;99.90;;;;;;4366392;32;20152;-73
2021/01/16 02:52:48;;;;;;;41.43;14.50;;;-8.10;99.90;;;;;;4365765;32;20160;-73
2021/01/16 02:55:16;;;;;;;38.13;14.93;;;-7.90;99.90;;;;;;4365252;32;20156;-73
2021/01/16 02:57:43;;;;;;;36.57;13.77;;;-7.80;99.90;;;;;;4365546;32;20152;-73
2021/01/16 03:00:14;;;;;;;35.13;14.03;;;-7.80;99.90;;;;;;4365334;32;20258;-73
2021/01/16 03:02:40;;;;;;;34.60;13.90;;;-7.80;99.90;;;;;;4366222;32;20170;-73
2021/01/16 03:05:08;;;;;;;39.53;14.23;;;-7.80;99.90;;;;;;4366623;32;20144;-73
2021/01/16 03:07:36;;;;;;;37.30;13.80;;;-7.90;99.90;;;;;;4365162;32;20208;-73
2021/01/16 03:10:07;;;;;;;32.13;14.53;;;-8.00;99.90;;;;;;4364553;32;20160;-72
2021/01/16 03:12:34;;;;;;;35.57;13.43;;;-8.00;99.90;;;;;;4366260;32;20218;-73
2021/01/16 03:15:09;;;;;;;35.70;13.37;;;-8.00;99.90;;;;;;4365935;32;20163;-73
2021/01/16 03:17:54;;;;;;;33.93;13.87;;;-8.00;99.90;;;;;;4366041;32;20147;-73
2021/01/16 03:20:31;;;;;;;35.20;14.07;;;-8.00;99.90;;;;;;4365347;32;20194;-73
2021/01/16 03:22:59;;;;;;;35.13;13.60;;;-7.80;99.90;;;;;;4364345;32;20144;-72
2021/01/16 03:25:27;;;;;;;38.13;14.00;;;-7.80;99.90;;;;;;4365060;32;20591;-72
2021/01/16 03:27:55;;;;;;;33.93;13.47;;;-7.80;99.90;;;;;;4364847;32;20152;-73
2021/01/16 03:30:24;;;;;;;34.07;13.70;;;-7.80;99.90;;;;;;4366028;32;20152;-73
2021/01/16 03:32:53;;;;;;;33.73;13.07;;;-7.70;99.90;;;;;;4364904;32;20148;-73
2021/01/16 03:35:25;;;;;;;36.63;14.30;;;-7.60;99.90;;;;;;4364902;32;20156;-73
2021/01/16 03:37:56;;;;;;;34.97;14.03;;;-7.40;99.90;;;;;;4365066;32;20148;-73
2021/01/16 03:40:24;;;;;;;34.77;13.77;;;-7.40;99.90;;;;;;4364166;32;20152;-72
2021/01/16 03:42:50;;;;;;;33.27;13.27;;;-7.30;99.90;;;;;;4365853;32;20202;-72
2021/01/16 03:45:20;;;;;;;35.07;13.87;;;-7.20;99.90;;;;;;4365154;32;20183;-72
2021/01/16 03:47:47;;;;;;;30.00;12.77;;;-7.20;99.90;;;;;;4365080;32;20191;-73
2021/01/16 03:50:14;;;;;;;31.50;12.23;;;-7.10;99.90;;;;;;4364458;32;20211;-72
2021/01/16 03:52:44;;;;;;;30.17;12.73;;;-7.10;99.90;;;;;;4364090;32;20232;-73
2021/01/16 03:55:11;;;;;;;32.77;12.43;;;-7.10;99.90;;;;;;4365624;32;20152;-73
2021/01/16 03:57:38;;;;;;;30.53;12.20;;;-7.10;99.90;;;;;;4364474;32;20144;-73
2021/01/16 04:00:10;;;;;;;27.90;11.57;;;-7.10;99.90;;;;;;4364379;32;20178;-73
2021/01/16 04:02:37;;;;;;;24.00;11.10;;;-7.10;99.90;;;;;;4365793;32;20405;-73
2021/01/16 04:05:05;;;;;;;29.07;11.57;;;-7.10;99.90;;;;;;4364376;32;20356;-73
2021/01/16 04:07:33;;;;;;;26.63;11.50;;;-7.10;99.90;;;;;;4364406;32;20170;-73
2021/01/16 04:10:05;;;;;;;29.73;11.60;;;-7.10;99.90;;;;;;4363729;32;20183;-74
2021/01/16 04:12:32;;;;;;;28.70;11.20;;;-7.20;99.90;;;;;;4363786;32;20149;-73
2021/01/16 04:15:01;;;;;;;29.97;10.97;;;-7.10;99.90;;;;;;4364287;32;20415;-73
2021/01/16 04:17:28;;;;;;;27.17;12.00;;;-7.10;99.90;;;;;;4364381;32;20152;-73
2021/01/16 04:19:54;;;;;;;29.23;11.83;;;-7.10;99.90;;;;;;4364251;32;20468;-72
2021/01/16 04:22:21;;;;;;;31.80;12.90;;;-7.00;99.90;;;;;;4365354;32;20199;-73
2021/01/16 04:24:47;;;;;;;31.87;11.87;;;-7.00;99.90;;;;;;4363735;32;20177;-73
2021/01/16 04:27:14;;;;;;;31.37;12.07;;;-7.10;99.90;;;;;;4363906;32;20217;-73
2021/01/16 04:29:40;;;;;;;28.47;12.13;;;-7.10;99.90;;;;;;4365603;32;20152;-73
2021/01/16 04:32:07;;;;;;;29.23;11.37;;;-7.00;99.90;;;;;;4364228;32;20156;-73
2021/01/16 04:34:33;;;;;;;30.37;12.40;;;-7.00;99.90;;;;;;4363810;32;20145;-73
2021/01/16 04:37:00;;;;;;;30.40;12.73;;;-7.00;99.90;;;;;;4365517;32;20461;-73
2021/01/16 04:39:26;;;;;;;31.03;13.00;;;-7.00;99.90;;;;;;4364123;33;20201;-73
2021/01/16 04:41:54;;;;;;;30.93;12.17;;;-6.90;99.90;;;;;;4364006;32;20164;-73
2021/01/16 04:44:22;;;;;;;33.00;12.70;;;-6.90;99.90;;;;;;4364053;33;20190;-73
2021/01/16 04:46:53;;;;;;;27.87;12.67;;;-6.90;99.90;;;;;;4364947;33;20152;-73
2021/01/16 04:49:21;;;;;;;33.43;12.70;;;-6.90;99.90;;;;;;4370593;32;20151;-73
2021/01/16 04:51:49;;;;;;;27.47;10.87;;;-7.00;99.90;;;;;;4379511;32;20147;-72
2021/01/16 04:54:17;;;;;;;27.37;11.17;;;-7.00;99.90;;;;;;4378838;32;20218;-73
2021/01/16 04:56:46;;;;;;;25.57;10.87;;;-7.00;99.90;;;;;;4378867;32;20463;-73
2021/01/16 04:59:13;;;;;;;31.07;12.90;;;-7.00;99.90;;;;;;4378434;32;20218;-73
2021/01/16 05:01:40;;;;;;;30.53;12.67;;;-7.20;99.90;;;;;;4379911;32;20140;-72
2021/01/16 05:04:08;;;;;;;31.60;12.43;;;-7.20;99.90;;;;;;4378973;32;20498;-73
2021/01/16 05:06:39;;;;;;;31.93;12.73;;;-7.20;99.90;;;;;;4378861;32;20197;-73
2021/01/16 05:09:06;;;;;;;31.07;13.63;;;-7.20;99.90;;;;;;4379042;32;20174;-72
2021/01/16 05:11:41;;;;;;;31.70;13.13;;;-7.20;99.90;;;;;;4373563;32;20175;-73
2021/01/16 05:14:14;;;;;;;34.90;13.37;;;-7.20;99.90;;;;;;4371792;32;20194;-73
2021/01/16 05:16:51;;;;;;;30.90;13.77;;;-7.20;99.90;;;;;;4372773;32;20187;-73
2021/01/16 05:19:24;;;;;;;33.67;13.80;;;-7.30;99.90;;;;;;4369546;32;20206;-72
2021/01/16 05:21:51;;;;;;;31.60;13.70;;;-7.20;99.90;;;;;;4372376;32;20155;-73
2021/01/16 05:24:18;;;;;;;42.37;15.33;;;-7.20;99.90;;;;;;4378732;32;20192;-73
2021/01/16 05:27:09;;;;;;;40.00;15.97;;;-7.30;99.90;;;;;;4379865;32;20191;-73
2021/01/16 05:29:36;;;;;;;39.87;16.07;;;-7.40;99.90;;;;;;4379347;32;20203;-73
2021/01/16 05:32:05;;;;;;;41.80;16.30;;;-7.40;99.90;;;;;;4378646;32;20190;-73
2021/01/16 05:34:33;;;;;;;40.83;16.30;;;-7.40;99.90;;;;;;4378671;32;20144;-73
2021/01/16 05:37:01;;;;;;;39.13;15.43;;;-7.40;99.90;;;;;;4378560;32;20205;-73
2021/01/16 05:39:29;;;;;;;42.83;16.27;;;-7.50;99.90;;;;;;4378708;32;20149;-73
2021/01/16 05:41:58;;;;;;;38.20;14.67;;;-7.50;99.90;;;;;;4378580;32;20171;-72
2021/01/16 05:44:26;;;;;;;36.20;15.23;;;-7.60;99.90;;;;;;4378035;32;20160;-72
2021/01/16 05:46:54;;;;;;;36.67;15.13;;;-7.60;99.90;;;;;;4378944;32;20178;-73
2021/01/16 05:49:22;;;;;;;38.70;15.93;;;-7.60;99.90;;;;;;4381307;32;20215;-72
2021/01/16 05:51:50;;;;;;;35.13;14.87;;;-7.70;99.90;;;;;;4381303;32;20171;-73
2021/01/16 05:54:17;;;;;;;34.27;14.57;;;-7.70;99.90;;;;;;4381068;32;20571;-72
2021/01/16 05:56:45;;;;;;;34.73;13.60;;;-7.90;99.90;;;;;;4381042;32;20183;-72
2021/01/16 05:59:17;;;;;;;33.57;13.90;;;-8.00;99.90;;;;;;4366167;32;20190;-72
2021/01/16 06:01:50;;;;;;;38.67;14.07;;;-8.00;99.90;;;;;;4367371;32;20175;-72
2021/01/16 06:04:21;;;;;;;34.27;13.83;;;-8.00;99.90;;;;;;4367570;32;20164;-72
2021/01/16 06:06:48;;;;;;;33.20;13.30;;;-8.00;99.90;;;;;;4366360;32;20184;-72
2021/01/16 06:09:16;;;;;;;31.20;12.33;;;-8.10;99.90;;;;;;4367493;32;20167;-72
2021/01/16 06:11:48;;;;;;;30.63;13.40;;;-8.10;99.90;;;;;;4367470;32;20167;-72
2021/01/16 06:14:16;;;;;;;32.00;13.97;;;-8.10;99.90;;;;;;4367433;32;20144;-72
2021/01/16 06:16:54;;;;;;;37.13;13.10;;;-8.10;99.90;;;;;;4353943;32;20413;-72
2021/01/16 06:19:22;;;;;;;33.97;12.97;;;-8.10;99.90;;;;;;4367305;32;20174;-71
2021/01/16 06:21:51;;;;;;;33.50;13.37;;;-8.10;99.90;;;;;;4365796;32;20202;-72
2021/01/16 06:24:23;;;;;;;34.50;13.57;;;-8.10;99.90;;;;;;4366424;32;20172;-71
2021/01/16 06:26:58;;;;;;;33.90;13.27;;;-8.10;99.90;;;;;;4366364;32;20156;-71
2021/01/16 06:29:32;;;;;;;34.77;13.77;;;-8.00;99.90;;;;;;4365558;32;20144;-71
2021/01/16 06:32:11;;;;;;;34.30;13.43;;;-8.00;99.90;;;;;;4366145;32;20179;-72
2021/01/16 06:34:41;;;;;;;26.90;11.83;;;-7.90;99.90;;;;;;4365745;32;20203;-72
2021/01/16 06:37:15;;;;;;;26.10;11.13;;;-7.90;99.90;;;;;;4367004;32;20202;-72
2021/01/16 06:39:43;;;;;;;25.50;11.07;;;-7.90;99.90;;;;;;4367063;32;20151;-72
2021/01/16 06:42:12;;;;;;;29.50;11.57;;;-7.70;99.90;;;;;;4366765;32;20170;-72
2021/01/16 06:44:40;;;;;;;27.50;11.13;;;-7.70;99.90;;;;;;4365561;32;20182;-72
2021/01/16 06:47:07;;;;;;;26.83;10.37;;;-7.70;99.90;;;;;;4365477;32;20521;-72
2021/01/16 06:49:35;;;;;;;26.27;10.43;;;-7.60;99.90;;;;;;4365337;32;20168;-72
2021/01/16 06:52:07;;;;;;;26.07;10.67;;;-7.50;99.90;;;;;;4365430;32;20292;-72
2021/01/16 06:54:36;;;;;;;29.47;10.47;;;-7.50;99.90;;;;;;4365168;32;20164;-73
2021/01/16 06:57:11;;;;;;;25.13;10.27;;;-7.40;99.90;;;;;;4365034;32;20203;-73
2021/01/16 06:59:42;;;;;;;25.10;10.33;;;-7.30;99.90;;;;;;4365403;32;20467;-72
2021/01/16 07:02:23;;;;;;;23.83;10.17;;;-7.20;99.90;;;;;;4367002;32;20175;-73
2021/01/16 07:04:53;;;;;;;28.37;10.97;;;-7.50;99.90;;;;;;4365232;32;20143;-71
2021/01/16 07:07:39;;;;;;;26.17;11.43;;;-7.60;99.90;;;;;;4365235;32;20156;-71
2021/01/16 07:10:17;;;;;;;26.80;11.17;;;-7.50;99.90;;;;;;4366652;32;20167;-73
2021/01/16 07:12:46;;;;;;;25.77;9.90;;;-7.30;99.90;;;;;;4365107;32;20528;-72
2021/01/16 07:15:13;;;;;;;27.30;11.03;;;-7.20;99.90;;;;;;4365009;32;20152;-72
2021/01/16 07:17:40;;;;;;;25.63;10.20;;;-7.20;99.90;;;;;;4364972;32;20192;-73
2021/01/16 07:20:08;;;;;;;25.10;10.87;;;-7.20;99.90;;;;;;4366191;32;20225;-72
2021/01/16 07:22:42;;;;;;;30.70;11.30;;;-7.20;99.90;;;;;;4364912;32;20153;-73
2021/01/16 07:25:11;;;;;;;27.90;11.80;;;-7.10;99.90;;;;;;4365179;32;20466;-73
2021/01/16 07:27:38;;;;;;;24.53;11.27;;;-7.00;99.90;;;;;;4364978;32;20152;-72
2021/01/16 08:16:34;;;;;;;41.37;16.70;;;-6.50;99.90;;;;;;4364327;32;20902;-73
2021/01/16 08:19:14;;;;;;;40.47;15.93;;;-6.40;99.90;;;;;;4365136;32;20152;-72
2021/01/16 08:21:53;;;;;;;37.67;15.60;;;-6.40;99.90;;;;;;4365737;32;20148;-73
2021/01/16 08:24:21;;;;;;;33.47;14.70;;;-6.40;99.90;;;;;;4364714;32;20144;-73
2021/01/16 08:27:04;;;;;;;40.23;15.70;;;-6.30;99.90;;;;;;4365542;32;20174;-73
2021/01/16 08:29:31;;;;;;;38.47;16.10;;;-6.20;99.90;;;;;;4365840;32;20485;-73
2021/01/16 08:32:10;;;;;;;37.57;14.97;;;-6.10;99.90;;;;;;4364974;32;20152;-73
2021/01/16 08:34:51;;;;;;;39.57;15.93;;;-5.80;99.90;;;;;;4365175;32;20187;-73
2021/01/16 08:37:33;;;;;;;39.47;15.93;;;-5.70;99.90;;;;;;4364592;32;20466;-73
2021/01/16 08:40:04;;;;;;;35.00;15.47;;;-5.70;99.90;;;;;;4364864;32;20216;-73
2021/01/16 08:42:30;;;;;;;37.20;15.87;;;-5.50;99.90;;;;;;4364132;33;20170;-73
2021/01/16 08:44:59;;;;;;;35.70;15.17;;;-5.30;99.90;;;;;;4363551;33;20152;-73
2021/01/16 08:47:25;;;;;;;44.70;18.03;;;-5.20;99.90;;;;;;4364003;33;20144;-73
2021/01/16 08:49:52;;;;;;;37.27;15.53;;;-5.30;99.90;;;;;;4364503;33;20186;-73
2021/01/16 08:52:32;;;;;;;36.33;16.07;;;-5.10;99.90;;;;;;4364177;33;20156;-73
2021/01/16 08:55:02;;;;;;;40.63;16.73;;;-5.00;99.90;;;;;;4365376;33;20160;-73
2021/01/16 08:57:32;;;;;;;36.60;15.93;;;-4.90;99.90;;;;;;4363671;33;20227;-73
2021/01/16 09:00:21;;;;;;;36.73;16.40;;;-4.90;99.90;;;;;;4363961;33;20160;-73
2021/01/16 09:03:07;;;;;;;38.73;15.80;;;-4.70;99.90;;;;;;4364244;33;20191;-72
2021/01/16 09:05:34;;;;;;;39.73;16.43;;;-4.60;99.90;;;;;;4364609;33;20168;-72
2021/01/16 09:08:02;;;;;;;40.77;16.50;;;-4.50;99.90;;;;;;4363911;33;20151;-73
2021/01/16 09:10:31;;;;;;;39.57;15.93;;;-4.50;99.90;;;;;;4363877;33;20379;-73
2021/01/16 09:12:59;;;;;;;37.47;16.93;;;-4.40;99.90;;;;;;4364421;33;20153;-73
2021/01/16 09:15:35;;;;;;;38.40;16.73;;;-4.40;99.90;;;;;;4363724;33;20157;-73
2021/01/16 09:18:13;;;;;;;41.07;16.77;;;-4.40;99.90;;;;;;4364729;33;20167;-73
2021/01/16 09:20:41;;;;;;;40.73;16.80;;;-4.50;99.90;;;;;;4364631;32;20207;-73
2021/01/16 09:23:20;;;;;;;40.67;17.53;;;-4.50;99.90;;;;;;4368159;32;20141;-73
2021/01/16 09:25:57;;;;;;;44.47;17.00;;;-4.60;99.90;;;;;;4367224;32;20180;-73
2021/01/16 09:28:48;;;;;;;54.27;18.67;;;-4.60;99.90;;;;;;4366611;32;20462;-73
2021/01/16 09:31:24;;;;;;;43.63;19.03;;;-4.60;99.90;;;;;;4366481;32;20198;-74
2021/01/16 09:33:57;;;;;;;45.77;18.03;;;-4.40;99.90;;;;;;4367319;32;20515;-73
2021/01/16 09:36:34;;;;;;;44.27;17.63;;;-4.50;99.90;;;;;;4366616;32;20156;-74
2021/01/16 09:39:02;;;;;;;45.03;18.07;;;-4.50;99.90;;;;;;4367949;32;20245;-73
2021/01/16 09:41:35;;;;;;;36.23;15.97;;;-4.50;99.90;;;;;;4365905;32;20188;-72
2021/01/16 09:44:05;;;;;;;36.30;15.60;;;-4.50;99.90;;;;;;4366292;32;20156;-76
2021/01/16 09:46:36;;;;;;;41.77;17.07;;;-4.40;99.90;;;;;;4366783;32;20429;-74
2021/01/16 09:49:07;;;;;;;36.27;15.43;;;-4.30;99.90;;;;;;4366188;32;20274;-73
2021/01/16 09:51:35;;;;;;;37.03;15.30;;;-4.20;99.90;;;;;;4365816;32;20174;-72
2021/01/16 09:54:15;;;;;;;34.87;15.27;;;-4.10;99.90;;;;;;4366330;32;20149;-73
2021/01/16 09:56:46;;;;;;;36.47;15.63;;;-4.10;99.90;;;;;;4365992;32;20259;-73
2021/01/16 09:59:20;;;;;;;29.00;13.00;;;-4.20;99.90;;;;;;4366500;32;20148;-72
2021/01/16 10:02:12;;;;;;;26.97;12.23;;;-4.10;99.90;;;;;;4367846;32;20231;-73
2021/01/16 10:04:44;;;;;;;33.03;12.43;;;-4.00;99.90;;;;;;4367736;32;20215;-72
2021/01/16 10:07:17;;;;;;;26.20;11.83;;;-3.90;99.90;;;;;;4365894;32;20179;-72
2021/01/16 10:10:12;;;;;;;26.33;11.50;;;-3.90;99.90;;;;;;4363110;32;20199;-73
2021/01/16 10:12:40;;;;;;;26.07;11.03;;;-3.90;99.90;;;;;;4366374;32;20192;-73
2021/01/16 10:15:17;;;;;;;24.90;11.57;;;-4.00;99.90;;;;;;4366025;32;20541;-73
2021/01/16 10:17:47;;;;;;;30.43;11.43;;;-3.80;99.90;;;;;;4365714;32;20222;-73
2021/01/16 10:20:18;;;;;;;25.63;11.73;;;-3.80;99.90;;;;;;4365839;32;20144;-73
2021/01/16 10:22:54;;;;;;;23.97;10.70;;;-3.90;99.90;;;;;;4365110;32;20222;-72
2021/01/16 10:25:40;;;;;;;26.20;11.70;;;-3.90;99.90;;;;;;4365864;32;20416;-74
2021/01/16 10:28:25;;;;;;;25.27;11.43;;;-3.90;99.90;;;;;;4361659;32;20553;-74
2021/01/16 10:31:12;;;;;;;26.97;11.63;;;-3.90;99.90;;;;;;4368289;32;20167;-72
2021/01/16 10:33:44;;;;;;;26.00;11.50;;;-3.90;99.90;;;;;;4366541;32;20151;-72
2021/01/16 10:36:14;;;;;;;24.60;11.03;;;-3.80;99.90;;;;;;4353929;33;20188;-71
2021/01/16 10:38:46;;;;;;;24.13;10.63;;;-3.60;99.90;;;;;;4365358;32;20153;-72
2021/01/16 10:41:20;;;;;;;24.30;10.43;;;-3.70;99.90;;;;;;4366352;32;20160;-73
2021/01/16 10:44:00;;;;;;;26.60;10.67;;;-3.70;99.90;;;;;;4364688;32;20183;-73
2021/01/16 10:46:36;;;;;;;25.07;10.07;;;-3.70;99.90;;;;;;4366223;32;20387;-73
2021/01/16 10:49:13;;;;;;;22.57;9.77;;;-3.60;99.90;;;;;;4355312;32;20164;-72
2021/01/16 10:51:41;;;;;;;22.73;10.13;;;-3.70;99.90;;;;;;4366288;32;20176;-72
2021/01/16 10:54:13;;;;;;;22.90;9.90;;;-3.70;99.90;;;;;;4364904;32;20409;-72
2021/01/16 10:56:44;;;;;;;21.83;10.17;;;-3.80;99.90;;;;;;4365528;32;20249;-74
2021/01/16 10:59:14;;;;;;;23.50;10.63;;;-3.80;99.90;;;;;;4366407;32;20163;-72
2021/01/16 11:01:48;;;;;;;21.07;10.30;;;-3.80;99.90;;;;;;4365388;32;20176;-72
2021/01/16 11:04:26;;;;;;;26.20;10.43;;;-3.80;99.90;;;;;;4365936;32;20159;-71
2021/01/16 11:06:55;;;;;;;25.07;10.83;;;-3.80;99.90;;;;;;4365487;32;20250;-72
2021/01/16 11:09:34;;;;;;;24.70;11.07;;;-3.90;99.90;;;;;;4366351;32;20148;-72
2021/01/16 11:12:05;;;;;;;22.90;10.73;;;-3.90;99.90;;;;;;4364855;32;20160;-72
2021/01/16 11:14:36;;;;;;;29.93;12.10;;;-4.00;99.90;;;;;;4364026;32;20155;-72
2021/01/16 11:17:05;;;;;;;28.00;12.73;;;-3.90;99.90;;;;;;4365319;32;20220;-71
2021/01/16 11:19:43;;;;;;;28.67;11.90;;;-3.80;99.90;;;;;;4364331;32;20279;-72
2021/01/16 11:22:14;;;;;;;26.67;12.13;;;-3.80;99.90;;;;;;4367415;32;20175;-71
2021/01/16 11:24:53;;;;;;;28.90;12.50;;;-3.80;99.90;;;;;;4363897;32;20418;-71
2021/01/16 11:27:26;;;;;;;29.50;13.33;;;-3.80;99.90;;;;;;4363268;32;20160;-72
2021/01/16 11:30:08;;;;;;;31.53;14.03;;;-3.70;99.90;;;;;;4362178;32;20160;-72
2021/01/16 11:32:38;;;;;;;32.07;13.97;;;-3.70;99.90;;;;;;4363925;32;20219;-72
2021/01/16 11:35:04;;;;;;;31.80;14.70;;;-3.60;99.90;;;;;;4363956;32;20526;-72
2021/01/16 11:37:57;;;;;;;37.93;16.43;;;-3.50;99.90;;;;;;4364860;32;20399;-71
2021/01/16 11:40:31;;;;;;;36.97;16.23;;;-3.50;99.90;;;;;;4365319;32;20176;-72
2021/01/16 11:43:05;;;;;;;38.73;16.10;;;-3.50;99.90;;;;;;4364538;32;20462;-72
2021/01/16 11:45:36;;;;;;;39.77;17.50;;;-3.40;99.90;;;;;;4365359;32;20156;-71
2021/01/16 11:48:05;;;;;;;42.10;18.07;;;-3.30;99.90;;;;;;4364656;32;20161;-72
2021/01/16 11:50:34;;;;;;;45.30;17.60;;;-3.40;99.90;;;;;;4366261;32;20191;-72
2021/01/16 11:53:10;;;;;;;40.93;17.57;;;-3.30;99.90;;;;;;4364485;32;20140;-72
2021/01/16 11:55:37;;;;;;;40.60;18.43;;;-3.20;99.90;;;;;;4364346;32;20176;-72
2021/01/16 11:58:04;;;;;;;35.97;17.73;;;-3.10;99.90;;;;;;4365945;32;20422;-72
2021/01/16 12:00:32;;;;;;;40.80;18.17;;;-3.10;99.90;;;;;;4364493;32;20152;-72
2021/01/16 12:03:17;;;;;;;40.87;16.97;;;-3.00;99.90;;;;;;4364282;32;20456;-72
2021/01/16 12:05:43;;;;;;;34.30;15.40;;;-2.90;99.90;;;;;;4365229;32;20174;-72
2021/01/16 12:08:12;;;;;;;35.77;15.77;;;-2.80;99.90;;;;;;4364386;32;20174;-72
2021/01/16 12:10:50;;;;;;;38.33;16.00;;;-2.80;99.90;;;;;;4363600;32;20386;-76
2021/01/16 12:13:17;;;;;;;31.97;15.43;;;-2.70;99.90;;;;;;4357574;32;20432;-73
2021/01/16 12:15:43;;;;;;;33.63;14.73;;;-2.60;99.90;;;;;;4364991;32;20205;-73
2021/01/16 12:18:12;;;;;;;29.93;14.53;;;-2.50;99.90;;;;;;4363726;32;20178;-72
2021/01/16 12:20:38;;;;;;;30.67;13.83;;;-2.50;99.90;;;;;;4363957;32;20145;-73
2021/01/16 12:23:05;;;;;;;27.40;13.27;;;-2.40;99.90;;;;;;4363460;32;20441;-72
2021/01/16 12:25:36;;;;;;;26.50;13.03;;;-2.40;99.90;;;;;;4363966;32;20156;-72
2021/01/16 12:28:10;;;;;;;31.93;13.30;;;-2.40;99.90;;;;;;4365689;32;20193;-73
2021/01/16 12:30:45;;;;;;;27.03;12.30;;;-2.50;99.90;;;;;;4364148;32;20156;-72
2021/01/16 12:33:22;;;;;;;23.43;11.10;;;-2.40;99.90;;;;;;4365218;32;20145;-72
2021/01/16 12:35:51;;;;;;;23.93;11.47;;;-2.30;99.90;;;;;;4364205;32;20211;-72
2021/01/16 12:38:19;;;;;;;26.20;11.20;;;-2.20;99.90;;;;;;4363963;32;20475;-72
2021/01/16 12:40:46;;;;;;;22.40;10.20;;;-2.20;99.90;;;;;;4365239;32;20374;-72
2021/01/16 12:43:15;;;;;;;21.87;10.97;;;-2.20;99.90;;;;;;4363942;33;20478;-72
2021/01/16 12:45:41;;;;;;;20.13;10.43;;;-2.20;99.90;;;;;;4365399;32;20202;-72
2021/01/16 12:48:08;;;;;;;21.03;9.23;;;-2.10;99.90;;;;;;4364083;33;20186;-72
2021/01/16 12:50:36;;;;;;;18.30;9.30;;;-2.10;99.90;;;;;;4373739;32;20406;-77
2021/01/16 12:53:07;;;;;;;19.23;9.47;;;-2.10;99.90;;;;;;4370805;32;20186;-72
2021/01/16 12:55:34;;;;;;;22.00;9.90;;;-2.00;99.90;;;;;;4372226;32;20148;-72
2021/01/16 12:58:01;;;;;;;19.53;9.77;;;-2.10;99.90;;;;;;4374528;32;20178;-72
2021/01/16 13:00:31;;;;;;;19.20;9.50;;;-2.00;99.90;;;;;;4374387;32;20246;-72
2021/01/16 13:03:04;;;;;;;20.03;10.40;;;-2.00;99.90;;;;;;4372853;32;20176;-72
2021/01/16 13:05:39;;;;;;;21.53;11.30;;;-2.00;99.90;;;;;;4373511;32;20368;-71
2021/01/16 13:08:07;;;;;;;19.67;10.17;;;-2.10;99.90;;;;;;4373357;32;20155;-72
2021/01/16 13:10:43;;;;;;;25.60;11.30;;;-2.10;99.90;;;;;;4375162;32;20183;-72
2021/01/16 13:13:15;;;;;;;21.00;10.33;;;-2.20;99.90;;;;;;4373909;32;20238;-72
2021/01/16 13:15:44;;;;;;;20.03;10.13;;;-2.20;99.90;;;;;;4372262;32;20180;-73
2021/01/16 13:18:16;;;;;;;18.97;10.60;;;-2.20;99.90;;;;;;4367190;32;20177;-72
2021/01/16 13:20:55;;;;;;;17.50;9.17;;;-2.30;99.90;;;;;;4377519;32;20163;-73
2021/01/16 13:23:39;;;;;;;19.17;9.20;;;-2.30;99.90;;;;;;4374635;32;20486;-72
2021/01/16 13:26:13;;;;;;;17.97;8.70;;;-2.30;99.90;;;;;;4372635;32;20214;-72
2021/01/16 13:28:44;;;;;;;17.47;8.83;;;-2.30;99.90;;;;;;4365083;32;20160;-72
2021/01/16 13:31:15;;;;;;;18.40;8.83;;;-2.40;99.90;;;;;;4366890;32;20161;-73
2021/01/16 13:33:49;;;;;;;19.17;9.60;;;-2.40;99.90;;;;;;4367025;32;20147;-72
2021/01/16 13:36:22;;;;;;;20.23;9.30;;;-2.50;99.90;;;;;;4367910;32;20200;-72